Time;durP1;ratioP1;P1;durP2;ratioP2;P2;SDS_P1;SDS_P2;PMS_P1;PMS_P2;Temp;Humidity;BMP_temperature;BMP_pressure;BME280_temperature;BME280_humidity;BME280_pressure;Samples;Min_cycle;Max_cycle;Signal;HPM_P1;HPM_P2
2022/08/01 00:00:14;;;;;;;47.78;30.58;;;18.50;99.90;;;;;;5016766;28;20176;-64
2022/08/01 00:02:40;;;;;;;53.97;32.13;;;18.60;99.90;;;;;;5016549;28;20187;-63
2022/08/01 00:05:07;;;;;;;52.08;31.80;;;18.50;99.90;;;;;;5016667;28;20577;-63
2022/08/01 00:07:36;;;;;;;57.50;32.58;;;18.50;99.90;;;;;;5016800;28;20275;-64
2022/08/01 00:10:08;;;;;;;45.78;29.17;;;18.50;99.90;;;;;;5016543;28;20179;-63
2022/08/01 00:12:34;;;;;;;43.72;29.10;;;18.50;99.90;;;;;;4998865;28;20186;-64
2022/08/01 00:15:00;;;;;;;48.47;30.17;;;18.50;99.90;;;;;;5016725;28;20188;-63
2022/08/01 00:17:26;;;;;;;57.10;33.63;;;18.50;99.90;;;;;;5016321;28;20283;-63
2022/08/01 00:19:51;;;;;;;50.65;31.23;;;18.40;99.90;;;;;;5016328;28;20175;-63
2022/08/01 00:22:17;;;;;;;55.72;32.15;;;18.40;99.90;;;;;;4999189;28;20210;-63
2022/08/01 00:24:43;;;;;;;57.17;33.65;;;18.40;99.90;;;;;;5016315;28;20192;-63
2022/08/01 00:27:09;;;;;;;66.43;35.90;;;18.40;99.90;;;;;;5016824;28;20168;-63
2022/08/01 00:29:34;;;;;;;60.67;34.88;;;18.30;99.90;;;;;;5016253;28;20247;-63
2022/08/01 00:32:00;;;;;;;58.95;34.47;;;18.30;99.90;;;;;;5015990;28;20176;-63
2022/08/01 00:34:26;;;;;;;59.28;34.65;;;18.30;99.90;;;;;;5016042;28;20298;-63
2022/08/01 00:36:52;;;;;;;64.25;34.20;;;18.30;99.90;;;;;;5016347;28;20183;-63
2022/08/01 00:39:17;;;;;;;61.72;35.00;;;18.30;99.90;;;;;;5016519;28;20180;-63
2022/08/01 00:41:43;;;;;;;66.13;35.95;;;18.30;99.90;;;;;;5016478;28;20199;-63
2022/08/01 00:44:09;;;;;;;63.10;37.05;;;18.20;99.90;;;;;;5015958;28;20182;-63
2022/08/01 00:46:35;;;;;;;64.80;36.05;;;18.20;99.90;;;;;;5015647;28;20204;-63
2022/08/01 00:49:01;;;;;;;66.65;37.08;;;18.20;99.90;;;;;;5016493;28;20186;-63
2022/08/01 00:51:27;;;;;;;61.00;34.22;;;18.20;99.90;;;;;;5016123;28;20670;-63
2022/08/01 00:53:54;;;;;;;58.10;33.63;;;18.20;99.90;;;;;;4998201;28;20307;-63
2022/08/01 00:56:21;;;;;;;54.85;32.00;;;18.20;99.90;;;;;;5015539;28;20692;-63
2022/08/01 00:58:47;;;;;;;55.22;31.63;;;18.20;99.90;;;;;;5015758;28;20596;-63
2022/08/01 01:01:13;;;;;;;51.58;29.73;;;18.20;99.90;;;;;;5015520;28;20205;-63
2022/08/01 01:03:39;;;;;;;48.58;29.70;;;18.20;99.90;;;;;;5015345;28;20210;-63
2022/08/01 01:06:26;;;;;;;49.80;27.55;;;18.20;99.90;;;;;;5015580;28;20224;-63
2022/08/01 01:09:03;;;;;;;46.90;26.85;;;18.20;99.90;;;;;;5015416;28;20684;-63
2022/08/01 01:11:39;;;;;;;40.35;25.98;;;18.20;99.90;;;;;;5015285;28;20180;-63
2022/08/01 01:14:13;;;;;;;44.80;26.70;;;18.20;99.90;;;;;;5016033;28;20215;-63
2022/08/01 01:16:42;;;;;;;50.72;28.23;;;18.20;99.90;;;;;;4997673;28;20221;-63
2022/08/01 01:19:13;;;;;;;55.50;28.35;;;18.20;99.90;;;;;;5015372;28;20180;-63
2022/08/01 01:21:42;;;;;;;59.97;29.67;;;18.20;99.90;;;;;;5015546;28;20227;-63
2022/08/01 01:24:44;;;;;;;55.33;30.05;;;18.20;99.90;;;;;;5015271;28;20172;-63
2022/08/01 01:27:21;;;;;;;58.00;29.80;;;18.10;99.90;;;;;;5015255;28;20183;-63
2022/08/01 01:29:51;;;;;;;64.30;32.10;;;18.20;99.90;;;;;;5015547;28;20629;-63
2022/08/01 01:32:28;;;;;;;66.45;33.25;;;18.20;99.90;;;;;;5015127;28;20183;-63
2022/08/01 01:34:56;;;;;;;67.30;33.10;;;18.20;99.90;;;;;;5015093;28;20612;-63
2022/08/01 01:37:24;;;;;;;67.75;35.20;;;18.20;99.90;;;;;;5015002;28;20184;-64
2022/08/01 01:39:52;;;;;;;66.45;33.95;;;18.20;99.90;;;;;;4997473;28;20179;-63
2022/08/01 01:42:20;;;;;;;64.13;33.22;;;18.20;99.90;;;;;;4997359;28;20211;-63
2022/08/01 01:44:49;;;;;;;67.20;33.15;;;18.20;99.90;;;;;;5014970;28;20711;-63
2022/08/01 01:47:17;;;;;;;74.68;36.17;;;18.20;99.90;;;;;;5014833;28;20196;-64
2022/08/01 01:49:46;;;;;;;73.75;34.75;;;18.20;99.90;;;;;;5015184;28;20180;-64
2022/08/01 01:52:15;;;;;;;77.82;38.33;;;18.20;99.90;;;;;;5015411;28;20172;-64
2022/08/01 01:54:45;;;;;;;82.47;38.22;;;18.20;99.90;;;;;;5015451;28;20199;-64
2022/08/01 01:57:12;;;;;;;78.30;36.55;;;18.10;99.90;;;;;;4999745;28;20195;-65
2022/08/01 01:59:40;;;;;;;82.50;39.80;;;18.10;99.90;;;;;;5018013;28;20620;-64
2022/08/01 02:02:08;;;;;;;85.15;39.45;;;18.10;99.90;;;;;;5017210;28;20696;-64
2022/08/01 02:04:37;;;;;;;102.03;44.22;;;18.10;99.90;;;;;;5015508;28;20254;-64
2022/08/01 02:07:05;;;;;;;91.35;43.53;;;18.10;99.90;;;;;;5015541;28;20184;-65
2022/08/01 02:09:31;;;;;;;102.90;44.30;;;18.10;99.90;;;;;;5014935;28;20168;-64
2022/08/01 02:11:59;;;;;;;99.32;45.35;;;18.10;99.90;;;;;;5015102;28;20207;-64
2022/08/01 02:14:27;;;;;;;106.93;48.85;;;18.10;99.90;;;;;;5014850;28;20171;-64
2022/08/01 02:16:57;;;;;;;104.07;46.25;;;18.10;99.90;;;;;;5014223;28;20262;-64
2022/08/01 02:19:23;;;;;;;108.47;49.60;;;18.10;99.90;;;;;;4996863;28;20176;-64
2022/08/01 02:22:00;;;;;;;109.00;48.03;;;18.10;99.90;;;;;;5029057;28;20211;-63
2022/08/01 02:25:11;;;;;;;114.18;48.67;;;18.10;99.90;;;;;;5014876;28;20196;-63
2022/08/01 02:27:45;;;;;;;106.53;45.67;;;18.20;99.90;;;;;;4953822;29;20276;-63
2022/08/01 02:30:14;;;;;;;103.57;45.72;;;18.10;99.90;;;;;;4954347;29;20224;-64
2022/08/01 02:32:50;;;;;;;99.78;43.88;;;18.10;99.90;;;;;;4989269;28;20311;-64
2022/08/01 02:35:28;;;;;;;98.43;43.17;;;18.10;99.90;;;;;;5014123;28;20235;-64
2022/08/01 02:37:55;;;;;;;89.68;40.45;;;18.10;99.90;;;;;;5014062;28;20164;-63
2022/08/01 02:40:21;;;;;;;89.32;41.03;;;18.10;99.90;;;;;;5013875;28;20218;-63
2022/08/01 02:42:52;;;;;;;89.95;40.42;;;18.10;99.90;;;;;;5013958;28;20176;-63
2022/08/01 02:45:20;;;;;;;92.38;41.42;;;18.10;99.90;;;;;;5014057;28;20230;-63
2022/08/01 02:47:49;;;;;;;83.30;38.85;;;18.10;99.90;;;;;;5013800;28;20259;-64
2022/08/01 02:50:17;;;;;;;82.03;39.50;;;18.10;99.90;;;;;;4996310;28;20175;-64
2022/08/01 02:52:48;;;;;;;87.80;39.38;;;18.10;99.90;;;;;;5014412;28;20172;-64
2022/08/01 02:55:14;;;;;;;97.68;39.65;;;18.10;99.90;;;;;;5013703;28;20192;-64
2022/08/01 02:57:42;;;;;;;82.45;39.17;;;18.20;99.90;;;;;;5014136;28;20664;-64
2022/08/01 03:00:09;;;;;;;73.88;35.47;;;18.10;99.90;;;;;;5013958;28;20171;-65
2022/08/01 03:02:35;;;;;;;83.47;39.05;;;18.10;99.90;;;;;;5013374;28;20180;-64
2022/08/01 03:05:03;;;;;;;85.70;39.08;;;18.20;99.90;;;;;;5013501;28;20200;-64
2022/08/01 03:07:30;;;;;;;89.65;39.95;;;18.20;99.90;;;;;;5013739;28;20649;-64
2022/08/01 03:09:57;;;;;;;95.10;43.33;;;18.10;99.90;;;;;;5013950;28;20316;-64
2022/08/01 03:12:29;;;;;;;83.82;39.75;;;18.10;99.90;;;;;;5014071;28;20210;-64
2022/08/01 03:14:57;;;;;;;89.25;41.30;;;18.10;99.90;;;;;;5014104;28;20653;-63
2022/08/01 03:17:26;;;;;;;98.70;43.75;;;18.10;99.90;;;;;;5013323;28;20172;-64
2022/08/01 03:19:53;;;;;;;96.07;43.03;;;18.10;99.90;;;;;;5013779;28;20198;-64
2022/08/01 03:22:22;;;;;;;102.90;44.58;;;18.10;99.90;;;;;;5013818;28;20199;-64
2022/08/01 03:24:52;;;;;;;93.90;42.38;;;18.20;99.90;;;;;;5013803;28;20188;-64
2022/08/01 03:27:21;;;;;;;101.65;44.17;;;18.20;99.90;;;;;;5014261;28;20638;-64
2022/08/01 03:29:49;;;;;;;104.00;45.67;;;18.20;99.90;;;;;;5013487;28;20179;-64
2022/08/01 03:32:17;;;;;;;114.88;46.92;;;18.20;99.90;;;;;;5013170;28;20176;-63
2022/08/01 03:34:43;;;;;;;105.30;45.10;;;18.20;99.90;;;;;;5017308;28;20212;-64
2022/08/01 03:37:24;;;;;;;107.88;46.97;;;18.20;99.90;;;;;;5019184;28;20546;-63
2022/08/01 03:40:00;;;;;;;94.70;42.17;;;18.10;99.90;;;;;;5017805;28;20167;-64
2022/08/01 03:42:33;;;;;;;80.88;36.72;;;18.00;99.90;;;;;;5017283;28;20615;-64
2022/08/01 03:45:09;;;;;;;68.85;32.15;;;17.90;99.90;;;;;;5017488;28;20250;-64
2022/08/01 03:47:35;;;;;;;73.72;33.97;;;17.80;99.90;;;;;;4999479;28;20164;-64
2022/08/01 03:50:04;;;;;;;55.03;25.83;;;17.80;99.90;;;;;;5017636;28;20195;-64
2022/08/01 03:52:31;;;;;;;44.75;22.75;;;17.80;99.90;;;;;;5017732;28;20172;-64
2022/08/01 03:55:02;;;;;;;45.45;24.05;;;17.70;99.90;;;;;;4999618;28;20689;-65
2022/08/01 03:57:29;;;;;;;37.65;19.17;;;17.70;99.90;;;;;;5017087;28;20203;-64
2022/08/01 03:59:59;;;;;;;40.65;21.00;;;17.60;99.90;;;;;;5016818;28;20176;-64
2022/08/01 04:02:27;;;;;;;38.67;19.80;;;17.60;99.90;;;;;;5016684;28;20238;-64
2022/08/01 04:04:53;;;;;;;40.55;22.27;;;17.60;99.90;;;;;;5016963;28;20203;-64
2022/08/01 04:07:29;;;;;;;40.90;20.58;;;17.60;99.90;;;;;;4999314;28;20176;-64
2022/08/01 04:09:55;;;;;;;40.60;21.08;;;17.60;99.90;;;;;;5017508;28;20181;-64
2022/08/01 04:12:22;;;;;;;45.47;21.38;;;17.60;99.90;;;;;;5017228;28;20184;-64
2022/08/01 04:14:48;;;;;;;49.15;22.48;;;17.60;99.90;;;;;;5016849;28;20200;-64
2022/08/01 04:17:15;;;;;;;50.58;24.05;;;17.70;99.90;;;;;;5016768;28;20333;-64
2022/08/01 04:19:41;;;;;;;45.95;22.85;;;17.70;99.90;;;;;;4999325;28;20184;-64
2022/08/01 04:22:09;;;;;;;54.65;24.67;;;17.70;99.90;;;;;;5017154;28;20208;-64
2022/08/01 04:24:37;;;;;;;59.58;26.02;;;17.70;99.90;;;;;;4999332;28;20234;-64
2022/08/01 04:27:07;;;;;;;56.25;27.13;;;17.70;99.90;;;;;;4999168;28;20164;-64
2022/08/01 04:29:35;;;;;;;55.15;25.98;;;17.80;99.90;;;;;;5016754;28;20160;-64
2022/08/01 04:32:02;;;;;;;65.10;27.75;;;17.80;99.90;;;;;;5016360;28;20203;-65
2022/08/01 04:34:32;;;;;;;60.72;26.83;;;17.70;99.90;;;;;;4998751;28;20188;-64
2022/08/01 04:37:00;;;;;;;65.15;27.88;;;17.80;99.90;;;;;;5017134;28;20182;-64
2022/08/01 04:39:28;;;;;;;66.25;28.42;;;17.80;99.90;;;;;;4999345;28;20621;-64
2022/08/01 04:41:57;;;;;;;56.35;25.77;;;17.80;99.90;;;;;;5017053;28;20207;-62
2022/08/01 04:44:24;;;;;;;63.10;27.65;;;17.80;99.90;;;;;;5016042;28;20172;-63
2022/08/01 04:46:54;;;;;;;59.28;28.60;;;17.80;99.90;;;;;;5016485;28;20298;-62
2022/08/01 04:49:21;;;;;;;62.03;28.95;;;17.80;99.90;;;;;;5015797;28;20180;-62
2022/08/01 04:51:57;;;;;;;56.83;27.08;;;17.90;99.90;;;;;;5016390;28;20187;-62
2022/08/01 04:54:36;;;;;;;65.25;29.45;;;17.90;99.90;;;;;;5015654;28;20159;-63
2022/08/01 04:57:03;;;;;;;62.95;28.92;;;17.90;99.90;;;;;;5015710;28;20195;-62
2022/08/01 04:59:39;;;;;;;67.68;29.63;;;17.90;99.90;;;;;;5015936;28;20176;-62
2022/08/01 05:02:14;;;;;;;58.78;27.88;;;17.90;99.90;;;;;;5015683;28;20198;-62
2022/08/01 05:04:41;;;;;;;70.28;30.88;;;17.90;99.90;;;;;;5015557;28;20202;-62
2022/08/01 05:07:08;;;;;;;66.18;29.60;;;17.90;99.90;;;;;;5015781;28;20663;-62
2022/08/01 05:09:35;;;;;;;52.00;24.75;;;17.90;99.90;;;;;;5015780;28;20171;-62
2022/08/01 05:12:03;;;;;;;58.05;27.05;;;18.00;99.90;;;;;;5018250;28;20246;-62
2022/08/01 05:14:32;;;;;;;63.13;28.02;;;18.00;99.90;;;;;;5015754;28;20193;-63
2022/08/01 05:17:02;;;;;;;55.15;26.27;;;18.00;99.90;;;;;;5015348;28;20664;-62
2022/08/01 05:19:32;;;;;;;66.65;28.42;;;18.10;99.90;;;;;;5015239;28;20251;-63
2022/08/01 05:22:00;;;;;;;57.28;26.27;;;18.10;99.90;;;;;;5015471;28;20196;-63
2022/08/01 05:24:30;;;;;;;55.25;26.10;;;18.10;99.90;;;;;;4997538;28;20172;-63
2022/08/01 05:26:56;;;;;;;52.75;25.60;;;18.20;99.90;;;;;;5015236;28;20172;-62
2022/08/01 05:29:22;;;;;;;55.35;26.10;;;18.20;99.90;;;;;;5015427;28;20171;-63
2022/08/01 05:31:47;;;;;;;41.13;20.65;;;18.20;99.90;;;;;;5015134;28;20226;-63
2022/08/01 05:34:14;;;;;;;54.78;25.35;;;18.20;99.90;;;;;;5014719;28;20262;-63
2022/08/01 05:36:40;;;;;;;52.58;24.27;;;18.20;99.90;;;;;;5014959;28;20278;-62
2022/08/01 05:39:05;;;;;;;51.08;23.10;;;18.20;99.90;;;;;;5014886;28;20664;-62
2022/08/01 05:41:31;;;;;;;42.40;22.05;;;18.20;99.90;;;;;;5015623;28;20226;-62
2022/08/01 05:43:57;;;;;;;42.28;21.23;;;18.20;99.90;;;;;;4997223;28;20315;-62
2022/08/01 05:46:23;;;;;;;41.88;21.00;;;18.20;99.90;;;;;;5014738;28;20222;-62
2022/08/01 05:48:48;;;;;;;35.45;19.95;;;18.10;99.90;;;;;;5014491;28;20175;-62
2022/08/01 05:51:14;;;;;;;38.70;20.60;;;18.20;99.90;;;;;;5014795;28;20184;-62
2022/08/01 05:53:40;;;;;;;35.90;18.73;;;18.20;99.90;;;;;;5014856;28;20176;-62
2022/08/01 05:56:06;;;;;;;42.67;22.42;;;18.20;99.90;;;;;;5014039;28;20215;-62
2022/08/01 05:58:31;;;;;;;33.95;21.13;;;18.20;99.90;;;;;;5014572;28;20179;-62
2022/08/01 06:00:58;;;;;;;36.03;20.88;;;18.30;99.90;;;;;;5014759;28;20200;-62
2022/08/01 06:03:23;;;;;;;38.58;19.33;;;18.30;99.90;;;;;;5014327;28;20175;-62
2022/08/01 06:05:51;;;;;;;36.13;20.50;;;18.30;99.90;;;;;;5014301;28;20278;-62
2022/08/01 06:08:17;;;;;;;41.95;21.65;;;18.30;99.90;;;;;;5014428;28;20637;-62
2022/08/01 06:10:43;;;;;;;38.63;20.80;;;18.40;99.90;;;;;;5014673;28;20210;-62
2022/08/01 06:13:08;;;;;;;35.90;19.40;;;18.40;99.90;;;;;;5014595;28;20210;-62
2022/08/01 06:15:34;;;;;;;36.47;19.73;;;18.40;99.90;;;;;;5014785;28;20245;-61
2022/08/01 06:18:00;;;;;;;33.45;18.23;;;18.40;99.90;;;;;;5013943;28;20230;-62
2022/08/01 06:20:26;;;;;;;29.60;16.50;;;18.30;99.90;;;;;;4996445;28;20211;-62
2022/08/01 06:22:52;;;;;;;31.90;17.42;;;18.30;99.90;;;;;;5014179;28;20219;-62
2022/08/01 06:25:18;;;;;;;28.80;16.88;;;18.20;99.90;;;;;;5014339;28;20257;-62
2022/08/01 06:27:44;;;;;;;26.67;16.33;;;18.20;99.90;;;;;;5014020;28;20532;-62
2022/08/01 06:30:10;;;;;;;37.13;21.80;;;18.30;99.90;;;;;;5013914;28;20168;-62
2022/08/01 06:32:36;;;;;;;40.78;23.00;;;18.30;99.90;;;;;;5013977;28;20176;-62
2022/08/01 06:35:02;;;;;;;36.83;21.33;;;18.20;99.90;;;;;;5013701;28;20689;-62
2022/08/01 06:37:30;;;;;;;40.70;22.83;;;18.30;99.90;;;;;;5013837;28;20176;-62
2022/08/01 06:39:56;;;;;;;36.63;21.73;;;18.30;99.90;;;;;;5013856;28;20180;-62
2022/08/01 06:42:21;;;;;;;37.15;21.27;;;18.40;99.90;;;;;;5013772;28;20207;-62
2022/08/01 06:44:47;;;;;;;34.17;20.70;;;18.50;99.90;;;;;;4996107;28;20201;-62
2022/08/01 06:47:13;;;;;;;29.80;18.85;;;18.40;99.90;;;;;;4996214;28;20186;-62
2022/08/01 06:49:39;;;;;;;27.50;17.55;;;18.40;99.90;;;;;;4995944;28;20230;-62
2022/08/01 06:52:04;;;;;;;27.08;16.15;;;18.60;99.90;;;;;;5013671;28;20176;-62
2022/08/01 06:54:30;;;;;;;26.25;15.95;;;18.70;99.90;;;;;;4996010;28;20270;-62
2022/08/01 06:56:56;;;;;;;29.02;16.90;;;18.70;99.90;;;;;;5013619;28;20199;-64
2022/08/01 06:59:22;;;;;;;22.75;14.48;;;18.60;99.90;;;;;;5014275;28;20184;-64
2022/08/01 07:01:47;;;;;;;23.40;14.90;;;18.60;99.90;;;;;;5013541;28;20254;-64
2022/08/01 07:04:13;;;;;;;28.08;16.23;;;18.70;99.90;;;;;;4995638;28;20188;-64
2022/08/01 07:06:39;;;;;;;22.27;13.95;;;18.60;99.90;;;;;;4996480;28;20653;-65
2022/08/01 07:09:04;;;;;;;23.58;14.63;;;18.70;99.90;;;;;;4996054;28;20186;-66
2022/08/01 07:11:30;;;;;;;22.00;14.90;;;18.70;99.90;;;;;;4995967;28;20199;-66
2022/08/01 07:13:56;;;;;;;21.55;15.23;;;18.70;99.90;;;;;;4995881;28;20184;-66
2022/08/01 07:16:22;;;;;;;23.25;15.25;;;18.70;99.90;;;;;;5013405;28;20200;-66
2022/08/01 07:18:48;;;;;;;21.73;15.48;;;18.80;99.90;;;;;;5013193;28;20220;-66
2022/08/01 07:21:14;;;;;;;22.55;15.60;;;18.70;99.90;;;;;;5013334;28;20290;-66
2022/08/01 07:23:40;;;;;;;22.98;15.85;;;18.70;99.90;;;;;;5013666;28;20164;-66
2022/08/01 07:26:06;;;;;;;23.20;14.90;;;18.70;99.90;;;;;;5013367;28;20680;-66
2022/08/01 07:28:32;;;;;;;19.95;14.50;;;18.80;99.90;;;;;;4995639;28;20203;-66
2022/08/01 07:30:57;;;;;;;19.17;14.63;;;18.90;99.90;;;;;;4995705;28;20273;-66
2022/08/01 07:33:23;;;;;;;20.40;13.63;;;18.90;99.90;;;;;;5013394;28;20176;-66
2022/08/01 07:35:49;;;;;;;20.48;14.18;;;19.00;99.90;;;;;;5013120;28;20277;-66
2022/08/01 07:38:16;;;;;;;22.42;14.10;;;18.90;99.90;;;;;;5013297;28;20215;-65
2022/08/01 07:40:43;;;;;;;19.08;13.45;;;19.00;99.90;;;;;;5013371;28;20277;-66
2022/08/01 07:43:09;;;;;;;18.58;13.90;;;19.00;99.90;;;;;;4995564;28;20186;-66
2022/08/01 07:45:35;;;;;;;18.60;13.45;;;19.10;99.90;;;;;;4995552;28;20707;-66
2022/08/01 07:48:04;;;;;;;19.38;13.27;;;19.10;99.90;;;;;;5013120;28;20172;-66
2022/08/01 07:50:30;;;;;;;18.95;13.07;;;19.20;99.90;;;;;;5013469;28;20172;-66
2022/08/01 07:52:56;;;;;;;16.58;12.43;;;19.20;99.90;;;;;;5013173;28;20175;-66
2022/08/01 07:55:22;;;;;;;18.02;13.07;;;19.30;99.90;;;;;;5013136;28;20759;-66
2022/08/01 07:57:48;;;;;;;17.08;11.75;;;19.30;99.90;;;;;;5013192;28;20164;-66
2022/08/01 08:00:14;;;;;;;16.20;12.05;;;19.40;99.90;;;;;;5013614;28;20222;-66
2022/08/01 08:02:40;;;;;;;18.20;13.45;;;19.40;99.90;;;;;;5013252;28;20212;-66
2022/08/01 08:05:07;;;;;;;15.80;13.10;;;19.40;99.90;;;;;;4994920;28;20294;-66
2022/08/01 08:07:33;;;;;;;19.02;13.25;;;19.40;99.90;;;;;;5012916;28;20286;-66
2022/08/01 08:09:58;;;;;;;14.75;12.07;;;19.40;99.90;;;;;;5012978;28;20730;-66
2022/08/01 08:12:24;;;;;;;15.48;12.45;;;19.50;99.90;;;;;;5013028;28;20281;-66
2022/08/01 08:14:50;;;;;;;14.98;12.13;;;19.70;99.90;;;;;;5012858;28;20243;-66
2022/08/01 08:17:17;;;;;;;11.73;8.13;;;19.90;99.90;;;;;;5012878;28;20180;-66
2022/08/01 08:19:42;;;;;;;9.48;7.47;;;20.10;99.90;;;;;;5014810;28;20299;-66
2022/08/01 08:22:09;;;;;;;13.55;8.45;;;20.10;99.90;;;;;;5016685;28;20208;-65
2022/08/01 08:24:35;;;;;;;10.52;8.05;;;20.20;99.90;;;;;;5016579;28;20395;-66
2022/08/01 08:27:02;;;;;;;12.23;9.27;;;20.20;99.90;;;;;;5016875;28;20221;-64
2022/08/01 08:29:31;;;;;;;11.88;9.20;;;20.30;99.90;;;;;;5016359;28;20179;-64
2022/08/01 08:31:58;;;;;;;10.63;9.48;;;20.50;99.90;;;;;;4998656;28;20271;-64
2022/08/01 08:34:25;;;;;;;10.82;9.23;;;20.60;99.90;;;;;;5015892;28;20686;-64
2022/08/01 08:36:51;;;;;;;14.95;10.25;;;20.70;99.90;;;;;;5016215;28;20183;-64
2022/08/01 08:39:17;;;;;;;10.88;9.73;;;20.80;99.90;;;;;;5016199;28;20179;-64
2022/08/01 08:41:44;;;;;;;11.80;9.77;;;20.80;99.90;;;;;;5016413;28;20699;-64
2022/08/01 08:44:10;;;;;;;12.40;9.50;;;20.90;99.90;;;;;;4998425;28;20180;-63
2022/08/01 08:46:45;;;;;;;12.32;10.15;;;20.90;99.90;;;;;;5016015;28;20196;-63
2022/08/01 08:49:15;;;;;;;10.73;9.23;;;20.90;99.90;;;;;;5015965;28;20156;-63
2022/08/01 08:51:43;;;;;;;15.15;9.20;;;21.00;99.90;;;;;;5016008;28;20652;-64
2022/08/01 08:54:12;;;;;;;12.82;9.13;;;21.00;99.90;;;;;;5015821;28;20171;-64
2022/08/01 08:56:39;;;;;;;11.40;9.48;;;20.90;99.90;;;;;;5015677;28;20219;-64
2022/08/01 08:59:04;;;;;;;9.95;7.70;;;20.90;99.90;;;;;;5016009;28;20525;-63
2022/08/01 09:01:35;;;;;;;7.00;5.95;;;20.90;99.90;;;;;;5015801;28;20207;-64
2022/08/01 09:04:04;;;;;;;6.93;5.07;;;21.10;99.90;;;;;;5015659;28;20199;-64
2022/08/01 09:06:31;;;;;;;6.85;4.60;;;21.20;99.90;;;;;;5015691;28;20218;-64
2022/08/01 09:08:57;;;;;;;7.28;5.20;;;21.40;99.90;;;;;;5015910;28;20180;-64
2022/08/01 09:11:24;;;;;;;7.40;4.55;;;21.50;99.90;;;;;;5016018;28;20179;-64
2022/08/01 09:14:14;;;;;;;6.78;5.25;;;21.60;99.90;;;;;;5016022;28;20676;-64
2022/08/01 09:16:42;;;;;;;8.48;5.45;;;21.50;99.90;;;;;;5015617;28;20199;-64
2022/08/01 09:19:12;;;;;;;8.52;5.20;;;21.40;99.90;;;;;;5015435;28;20186;-64
2022/08/01 09:21:39;;;;;;;7.45;4.90;;;21.20;99.90;;;;;;5015856;28;20203;-64
2022/08/01 09:24:14;;;;;;;7.47;4.25;;;21.10;99.90;;;;;;5030624;28;20176;-64
2022/08/01 09:26:40;;;;;;;5.13;4.47;;;21.10;99.90;;;;;;5015545;28;20202;-64
2022/08/01 09:29:08;;;;;;;5.97;4.80;;;21.00;99.90;;;;;;5015328;28;20250;-64
2022/08/01 09:31:42;;;;;;;7.80;4.32;;;21.00;99.90;;;;;;4996604;28;20184;-64
2022/08/01 09:34:09;;;;;;;6.50;4.72;;;21.00;99.90;;;;;;5014905;28;20179;-64
2022/08/01 09:36:56;;;;;;;6.45;4.57;;;21.00;99.90;;;;;;4997541;28;20210;-64
2022/08/01 09:39:24;;;;;;;5.72;4.05;;;21.30;99.90;;;;;;4998039;28;20180;-64
2022/08/01 09:41:51;;;;;;;4.32;3.45;;;21.60;99.90;;;;;;5015071;28;20206;-64
2022/08/01 09:44:18;;;;;;;6.50;4.07;;;21.70;99.90;;;;;;5015098;28;20230;-64
2022/08/01 09:46:54;;;;;;;4.50;3.53;;;21.80;99.90;;;;;;5015190;28;20254;-64
2022/08/01 09:49:34;;;;;;;4.32;3.63;;;22.00;99.90;;;;;;5014705;28;20163;-64
2022/08/01 09:52:14;;;;;;;5.30;3.50;;;22.20;99.90;;;;;;5015151;28;20679;-64
2022/08/01 09:54:41;;;;;;;4.32;3.58;;;22.20;99.90;;;;;;5015416;28;20598;-64
2022/08/01 09:57:12;;;;;;;5.35;3.67;;;22.40;99.90;;;;;;5014663;28;20271;-64
2022/08/01 09:59:42;;;;;;;3.78;2.83;;;22.70;99.90;;;;;;5014867;28;20551;-64
2022/08/01 10:02:14;;;;;;;2.88;2.50;;;22.90;99.90;;;;;;5014733;28;20253;-64
2022/08/01 10:04:51;;;;;;;5.72;2.90;;;22.80;99.90;;;;;;5014480;28;20204;-64
2022/08/01 10:07:18;;;;;;;5.07;2.53;;;22.80;99.90;;;;;;5014932;28;20202;-64
2022/08/01 10:09:45;;;;;;;2.90;2.45;;;22.90;99.90;;;;;;5014806;28;20164;-64
2022/08/01 10:12:13;;;;;;;11.63;6.00;;;23.00;99.90;;;;;;5029860;28;20188;-64
2022/08/01 10:14:40;;;;;;;4.57;3.05;;;23.10;99.90;;;;;;4997147;28;20199;-64
2022/08/01 10:17:09;;;;;;;3.25;2.92;;;22.80;99.90;;;;;;5015470;28;20234;-64
2022/08/01 10:19:37;;;;;;;4.80;3.22;;;22.50;99.90;;;;;;5015004;28;20649;-64
2022/08/01 10:22:07;;;;;;;4.60;3.10;;;22.30;99.90;;;;;;5030052;28;20239;-64
2022/08/01 10:24:39;;;;;;;3.85;3.35;;;22.20;99.90;;;;;;4997302;28;20186;-64
2022/08/01 10:27:08;;;;;;;5.35;3.58;;;22.20;99.90;;;;;;4996815;28;20167;-64
2022/08/01 10:29:40;;;;;;;4.28;3.17;;;22.00;99.90;;;;;;5029677;28;20175;-64
2022/08/01 10:32:08;;;;;;;7.60;3.88;;;21.90;99.90;;;;;;5014447;28;20187;-64
2022/08/01 10:34:35;;;;;;;4.30;3.83;;;22.00;99.90;;;;;;5014155;28;20176;-64
2022/08/01 10:37:02;;;;;;;4.75;3.50;;;22.20;99.90;;;;;;5014328;28;20679;-64
2022/08/01 10:39:29;;;;;;;7.00;4.07;;;22.40;99.90;;;;;;5014175;28;20184;-64
2022/08/01 10:41:56;;;;;;;4.88;3.90;;;22.50;99.90;;;;;;5013759;28;20207;-64
2022/08/01 10:44:26;;;;;;;5.90;4.22;;;22.60;99.90;;;;;;4996528;28;20180;-64
2022/08/01 10:46:59;;;;;;;3.80;3.40;;;22.50;99.90;;;;;;5014347;28;20160;-64
2022/08/01 10:49:30;;;;;;;5.00;4.03;;;22.50;99.90;;;;;;5014003;28;20157;-64
2022/08/01 10:51:56;;;;;;;4.45;3.83;;;22.60;99.90;;;;;;5014017;28;20165;-64
2022/08/01 10:54:25;;;;;;;8.55;4.43;;;22.50;99.90;;;;;;5014017;28;20172;-65
2022/08/01 10:56:52;;;;;;;4.05;3.33;;;22.50;99.90;;;;;;5013869;28;20254;-64
2022/08/01 10:59:24;;;;;;;5.00;3.45;;;22.70;99.90;;;;;;5013870;28;20664;-64
2022/08/01 11:02:01;;;;;;;3.35;2.83;;;22.70;99.90;;;;;;5013889;28;20195;-64
2022/08/01 11:04:48;;;;;;;5.10;3.65;;;22.80;99.90;;;;;;5013657;28;20183;-65
2022/08/01 11:07:19;;;;;;;4.18;3.78;;;22.80;99.90;;;;;;5014061;28;20221;-64
2022/08/01 11:09:47;;;;;;;3.50;3.20;;;22.90;99.90;;;;;;5013864;28;20226;-64
2022/08/01 11:12:15;;;;;;;3.30;2.60;;;23.00;99.90;;;;;;5013879;28;20172;-64
2022/08/01 11:14:59;;;;;;;3.17;2.88;;;23.00;99.90;;;;;;5013776;28;20567;-64
2022/08/01 11:17:35;;;;;;;3.05;2.55;;;22.90;99.90;;;;;;4996513;28;20184;-64
2022/08/01 11:20:11;;;;;;;4.10;1.98;;;22.80;99.90;;;;;;5013789;28;20250;-64
2022/08/01 11:23:04;;;;;;;2.90;2.60;;;22.70;99.90;;;;;;4996354;28;20214;-64
2022/08/01 11:25:36;;;;;;;3.65;2.03;;;22.70;99.90;;;;;;5014160;28;20187;-64
2022/08/01 11:28:14;;;;;;;2.33;2.13;;;22.60;99.90;;;;;;4995902;28;20183;-64
2022/08/01 11:30:46;;;;;;;2.10;2.00;;;22.60;99.90;;;;;;4995807;28;20172;-64
2022/08/01 11:33:13;;;;;;;2.22;1.83;;;22.80;99.90;;;;;;5028769;28;20182;-63
2022/08/01 11:36:15;;;;;;;3.20;2.30;;;23.00;99.90;;;;;;5013024;28;20695;-64
2022/08/01 11:38:59;;;;;;;2.58;2.22;;;22.90;99.90;;;;;;5013619;28;20186;-64
2022/08/01 11:41:30;;;;;;;1.73;1.63;;;23.10;99.90;;;;;;5013225;28;20204;-64
2022/08/01 11:44:10;;;;;;;2.10;1.90;;;23.50;99.90;;;;;;5013318;28;20168;-63
2022/08/01 11:47:02;;;;;;;2.30;1.90;;;23.90;99.90;;;;;;5013310;28;20681;-63
2022/08/01 11:49:39;;;;;;;2.70;2.30;;;24.30;99.90;;;;;;5013197;28;20159;-64
2022/08/01 11:52:13;;;;;;;4.68;1.73;;;24.40;99.90;;;;;;4995663;28;20179;-64
2022/08/01 11:54:51;;;;;;;2.45;2.13;;;24.30;99.90;;;;;;4997799;28;20186;-64
2022/08/01 11:57:23;;;;;;;2.15;1.90;;;24.10;99.90;;;;;;5016870;28;20215;-64
2022/08/01 11:59:54;;;;;;;2.30;1.90;;;24.00;99.90;;;;;;5017458;28;20243;-64
2022/08/01 12:02:25;;;;;;;2.38;2.15;;;24.20;99.90;;;;;;5016697;28;20222;-64
2022/08/01 12:04:56;;;;;;;1.95;1.73;;;24.50;99.90;;;;;;5016409;28;20195;-64
2022/08/01 12:07:23;;;;;;;1.88;1.75;;;24.50;99.90;;;;;;5016573;28;20245;-63
2022/08/01 12:10:04;;;;;;;2.90;1.77;;;24.80;99.90;;;;;;5016780;28;20641;-64
2022/08/01 12:12:31;;;;;;;3.03;1.60;;;25.20;99.90;;;;;;5016721;28;20687;-64
2022/08/01 12:15:06;;;;;;;2.35;1.50;;;25.20;99.90;;;;;;5016645;28;20199;-64
2022/08/01 12:17:37;;;;;;;2.03;1.30;;;24.80;99.90;;;;;;5016389;28;20171;-63
2022/08/01 12:20:06;;;;;;;3.83;1.25;;;24.60;99.90;;;;;;5016223;28;20172;-64
2022/08/01 12:22:32;;;;;;;1.20;1.10;;;24.20;99.90;;;;;;5016240;28;20204;-63
2022/08/01 12:25:07;;;;;;;1.45;1.35;;;23.90;99.90;;;;;;5016567;28;20230;-63
2022/08/01 12:27:34;;;;;;;1.27;1.10;;;23.70;99.90;;;;;;4998741;28;20674;-63
2022/08/01 12:30:00;;;;;;;1.20;1.10;;;23.80;99.90;;;;;;5016556;28;20179;-63
2022/08/01 12:32:35;;;;;;;1.48;1.38;;;24.00;99.90;;;;;;5016549;28;20667;-63
2022/08/01 12:35:06;;;;;;;1.38;1.30;;;24.30;99.90;;;;;;5015981;28;20203;-63
2022/08/01 12:37:45;;;;;;;1.25;1.15;;;24.40;99.90;;;;;;5031485;28;20686;-63
2022/08/01 12:40:18;;;;;;;1.35;1.35;;;24.60;99.90;;;;;;5016367;28;20525;-63
2022/08/01 12:42:47;;;;;;;1.58;1.48;;;25.00;99.90;;;;;;5016588;28;20188;-64